Time;durP1;ratioP1;P1;durP2;ratioP2;P2;SDS_P1;SDS_P2;PMS_P1;PMS_P2;Temp;Humidity;BMP_temperature;BMP_pressure;BME280_temperature;BME280_humidity;BME280_pressure;Samples;Min_cycle;Max_cycle;Signal;HPM_P1;HPM_P2
2022/02/12 00:02:20;;;;;;;6.50;4.73;;;0.10;99.90;;;;;;6256795;23;20145;-81
2022/02/12 00:04:45;;;;;;;9.10;6.13;;;0.20;99.90;;;;;;6255792;23;20220;-82
2022/02/12 00:07:11;;;;;;;6.73;4.60;;;0.20;99.90;;;;;;6263563;23;20149;-81
2022/02/12 00:09:36;;;;;;;6.07;3.90;;;0.20;99.90;;;;;;6264868;23;20181;-82
2022/02/12 00:12:03;;;;;;;7.17;4.30;;;0.40;99.90;;;;;;6264817;23;20145;-82
2022/02/12 00:14:29;;;;;;;6.17;4.10;;;0.10;99.90;;;;;;6263643;23;20161;-82
2022/02/12 00:16:55;;;;;;;6.47;4.30;;;0.10;99.90;;;;;;6236348;23;20153;-82
2022/02/12 00:19:21;;;;;;;8.07;4.70;;;0.10;99.90;;;;;;6211109;23;20168;-82
2022/02/12 00:21:46;;;;;;;10.87;4.83;;;0.10;99.90;;;;;;6239084;23;20160;-82
2022/02/12 00:24:12;;;;;;;7.73;4.50;;;0.20;99.90;;;;;;6266724;22;20268;-82
2022/02/12 00:26:38;;;;;;;5.27;4.17;;;0.10;99.90;;;;;;6271905;23;20157;-81
2022/02/12 00:29:03;;;;;;;4.60;3.80;;;0.10;99.90;;;;;;6273217;23;20165;-81
2022/02/12 00:31:29;;;;;;;7.93;4.70;;;0.10;99.90;;;;;;6239322;23;20207;-81
2022/02/12 00:33:55;;;;;;;6.20;4.60;;;0.00;99.90;;;;;;6239354;23;20149;-81
2022/02/12 00:36:21;;;;;;;6.67;4.47;;;-0.10;99.90;;;;;;6266083;23;20169;-81
2022/02/12 00:38:47;;;;;;;7.47;4.50;;;-0.20;99.90;;;;;;6240465;23;20199;-81
2022/02/12 00:41:12;;;;;;;4.53;3.70;;;-0.20;99.90;;;;;;6265869;23;20153;-81
2022/02/12 00:43:38;;;;;;;4.30;3.67;;;-0.10;99.90;;;;;;6264404;23;20149;-81
2022/02/12 00:46:04;;;;;;;4.33;3.63;;;0.20;99.90;;;;;;6238661;23;20176;-81
2022/02/12 00:48:30;;;;;;;4.93;3.70;;;0.00;99.90;;;;;;6264355;23;20175;-81
2022/02/12 00:50:59;;;;;;;7.43;3.63;;;0.00;99.90;;;;;;6265343;23;20172;-82
2022/02/12 00:53:26;;;;;;;5.60;3.50;;;0.00;99.90;;;;;;6263981;23;20145;-82
2022/02/12 00:55:51;;;;;;;6.70;4.03;;;0.00;99.90;;;;;;6261762;23;20176;-81
2022/02/12 00:58:18;;;;;;;4.83;3.70;;;0.00;99.90;;;;;;6228527;23;20157;-81
2022/02/12 01:00:44;;;;;;;4.90;3.53;;;0.00;99.90;;;;;;6261261;23;20164;-81
2022/02/12 01:03:10;;;;;;;4.27;3.67;;;0.10;99.90;;;;;;6262013;23;20222;-81
2022/02/12 01:05:37;;;;;;;7.67;3.60;;;0.00;99.90;;;;;;6260342;23;20622;-82
2022/02/12 01:08:03;;;;;;;6.47;3.97;;;0.00;99.90;;;;;;6236221;23;20180;-81
2022/02/12 01:10:30;;;;;;;6.93;3.40;;;0.00;99.90;;;;;;6235164;23;20177;-82
2022/02/12 01:12:55;;;;;;;4.80;3.83;;;0.00;99.90;;;;;;6234844;23;20149;-81
2022/02/12 01:15:21;;;;;;;5.67;3.43;;;-0.10;99.90;;;;;;6259840;23;20165;-81
2022/02/12 01:17:47;;;;;;;7.63;4.10;;;-0.10;99.90;;;;;;6260632;23;20168;-81
2022/02/12 01:20:13;;;;;;;5.77;3.67;;;-0.10;99.90;;;;;;6231782;23;20206;-81
2022/02/12 01:22:39;;;;;;;7.10;4.03;;;-0.10;99.90;;;;;;6258357;23;20168;-81
2022/02/12 01:25:09;;;;;;;5.80;3.67;;;-0.10;99.90;;;;;;6252245;22;20196;-81
2022/02/12 01:27:37;;;;;;;7.17;3.80;;;0.70;99.90;;;;;;6271337;22;20156;-80
2022/02/12 01:30:06;;;;;;;6.77;4.00;;;-0.20;99.90;;;;;;6246717;23;20177;-81
2022/02/12 01:32:39;;;;;;;7.47;3.83;;;-0.20;99.90;;;;;;6247461;23;20200;-82
2022/02/12 01:35:07;;;;;;;6.07;3.63;;;-0.20;99.90;;;;;;6247763;22;20149;-80
2022/02/12 01:37:34;;;;;;;5.47;3.67;;;-0.20;99.90;;;;;;6250193;23;20149;-79
2022/02/12 01:39:59;;;;;;;10.17;3.67;;;0.00;99.90;;;;;;6250292;23;20252;-79
2022/02/12 01:42:27;;;;;;;6.30;4.07;;;-0.10;99.90;;;;;;6248116;22;20149;-80
2022/02/12 01:44:53;;;;;;;9.73;3.73;;;0.20;99.90;;;;;;6250022;23;20590;-78
2022/02/12 01:47:19;;;;;;;6.80;3.77;;;0.30;99.90;;;;;;6248123;23;20176;-79
2022/02/12 01:49:46;;;;;;;5.63;3.93;;;0.60;99.90;;;;;;6250158;23;20188;-79
2022/02/12 01:52:13;;;;;;;5.13;3.57;;;-0.10;99.90;;;;;;6250016;23;20155;-80
2022/02/12 01:54:39;;;;;;;5.63;3.60;;;-0.20;99.90;;;;;;6250241;23;20153;-79
2022/02/12 01:57:06;;;;;;;6.70;3.47;;;-0.20;99.90;;;;;;6250159;23;20467;-79
2022/02/12 01:59:33;;;;;;;7.30;3.73;;;-0.20;99.90;;;;;;6250232;23;20157;-80
2022/02/12 02:01:59;;;;;;;6.53;3.80;;;-0.20;99.90;;;;;;6249792;23;20155;-79
2022/02/12 02:04:25;;;;;;;9.47;4.00;;;-0.20;99.90;;;;;;6249537;23;20173;-81
2022/02/12 02:06:51;;;;;;;7.03;4.00;;;-0.20;99.90;;;;;;6250092;23;20220;-79
2022/02/12 02:09:18;;;;;;;5.90;4.00;;;-0.20;99.90;;;;;;6248432;23;20240;-79
2022/02/12 02:11:44;;;;;;;5.40;3.67;;;-0.20;99.90;;;;;;6250851;23;20152;-79
2022/02/12 02:14:10;;;;;;;5.20;3.80;;;-0.20;99.90;;;;;;6250205;23;20613;-79
2022/02/12 02:16:37;;;;;;;6.70;3.73;;;-0.10;99.90;;;;;;6249672;23;20224;-79
2022/02/12 02:19:03;;;;;;;7.10;4.30;;;-0.20;99.90;;;;;;6248433;23;20153;-79
2022/02/12 02:21:30;;;;;;;6.00;3.53;;;-0.20;99.90;;;;;;6250070;23;20586;-79
2022/02/12 02:23:59;;;;;;;4.30;3.83;;;-0.20;99.90;;;;;;6247841;23;20227;-79
2022/02/12 02:26:25;;;;;;;6.73;4.13;;;-0.20;99.90;;;;;;6250017;23;20203;-80
2022/02/12 02:28:50;;;;;;;7.67;3.87;;;-0.20;99.90;;;;;;6247597;23;20557;-79
2022/02/12 02:31:16;;;;;;;4.30;3.60;;;-0.10;99.90;;;;;;6249800;23;20677;-79
2022/02/12 02:33:42;;;;;;;3.87;3.47;;;-0.30;99.90;;;;;;6249856;23;20149;-80
2022/02/12 02:36:07;;;;;;;4.93;4.00;;;-0.30;99.90;;;;;;6248485;23;20160;-80
2022/02/12 02:38:33;;;;;;;4.33;3.93;;;-0.30;99.90;;;;;;6247134;23;20272;-80
2022/02/12 02:40:59;;;;;;;6.37;4.33;;;-0.30;99.90;;;;;;6245678;23;20540;-81
2022/02/12 02:43:25;;;;;;;6.73;4.20;;;-0.30;99.90;;;;;;6246898;23;20149;-80
2022/02/12 02:45:51;;;;;;;8.37;4.10;;;-0.30;99.90;;;;;;6249573;23;20172;-81
2022/02/12 02:48:18;;;;;;;8.30;3.70;;;-0.30;99.90;;;;;;6249340;23;20222;-81
2022/02/12 02:56:12;;;;;;;7.30;4.20;;;-0.30;99.90;;;;;;6248674;23;20219;-78
2022/02/12 02:58:59;;;;;;;5.73;4.13;;;-0.40;99.90;;;;;;6246353;23;20176;-78
2022/02/12 03:01:27;;;;;;;5.07;4.00;;;-0.30;99.90;;;;;;6248130;23;20482;-81
2022/02/12 03:03:54;;;;;;;7.40;4.53;;;-0.40;99.90;;;;;;6250597;23;20169;-79
2022/02/12 03:06:22;;;;;;;5.17;4.07;;;-0.40;99.90;;;;;;6249698;23;20161;-80
2022/02/12 03:08:48;;;;;;;7.50;4.20;;;-0.40;99.90;;;;;;6248638;23;20608;-79
2022/02/12 03:11:15;;;;;;;4.93;4.13;;;-0.30;99.90;;;;;;6250234;23;20172;-81
2022/02/12 03:13:42;;;;;;;4.77;3.80;;;-0.30;99.90;;;;;;6248218;23;20191;-80
2022/02/12 03:16:08;;;;;;;7.60;4.07;;;-0.30;99.90;;;;;;6248865;23;20175;-80
2022/02/12 03:18:47;;;;;;;5.67;4.10;;;-0.30;99.90;;;;;;6250308;23;20149;-80
2022/02/12 03:21:13;;;;;;;5.73;4.67;;;-0.30;99.90;;;;;;6249885;23;20446;-80
2022/02/12 03:23:40;;;;;;;6.53;3.97;;;-0.30;99.90;;;;;;6248380;23;20153;-80
2022/02/12 03:26:06;;;;;;;5.43;4.57;;;-0.40;99.90;;;;;;6222343;23;20200;-80
2022/02/12 03:28:32;;;;;;;8.77;4.27;;;-0.40;99.90;;;;;;6249598;22;20160;-80
2022/02/12 03:30:58;;;;;;;4.50;4.07;;;-0.40;99.90;;;;;;6248791;23;20173;-80
2022/02/12 03:33:24;;;;;;;7.47;4.00;;;-0.40;99.90;;;;;;6249974;23;20512;-80
2022/02/12 03:35:50;;;;;;;7.90;4.83;;;-0.50;99.90;;;;;;6248349;23;20232;-80
2022/02/12 03:38:19;;;;;;;8.67;4.40;;;-0.50;99.90;;;;;;6249325;23;20169;-80
2022/02/12 03:40:47;;;;;;;5.27;4.20;;;-0.50;99.90;;;;;;6249634;23;20168;-80
2022/02/12 03:43:13;;;;;;;9.57;4.57;;;-0.40;99.90;;;;;;6249614;23;20502;-80
2022/02/12 03:45:40;;;;;;;6.93;4.63;;;-0.40;99.90;;;;;;6247684;23;20175;-80
2022/02/12 03:48:06;;;;;;;8.20;4.40;;;-0.50;99.90;;;;;;6247556;23;20153;-80
2022/02/12 03:50:33;;;;;;;6.57;4.37;;;-0.50;99.90;;;;;;6249935;23;20491;-80
2022/02/12 03:53:00;;;;;;;9.80;4.53;;;-0.40;99.90;;;;;;6248822;23;20146;-80
2022/02/12 03:55:26;;;;;;;7.23;4.57;;;-0.50;99.90;;;;;;6249279;23;20195;-80
2022/02/12 03:57:52;;;;;;;7.37;4.70;;;-0.50;99.90;;;;;;6249581;23;20155;-80
2022/02/12 04:00:19;;;;;;;6.80;3.83;;;-0.60;99.90;;;;;;6250137;23;20146;-78
2022/02/12 04:02:45;;;;;;;5.30;4.03;;;-0.50;99.90;;;;;;6249916;23;20153;-80
2022/02/12 04:05:16;;;;;;;5.10;4.57;;;-0.50;99.90;;;;;;6249272;23;20152;-79
2022/02/12 04:07:43;;;;;;;8.97;4.80;;;-0.50;99.90;;;;;;6249740;22;20130;-80
2022/02/12 04:10:14;;;;;;;5.17;4.10;;;-0.60;99.90;;;;;;6249845;23;20517;-80
2022/02/12 04:12:41;;;;;;;5.97;4.37;;;-0.50;99.90;;;;;;6249990;23;20132;-80
2022/02/12 04:15:07;;;;;;;6.73;4.33;;;-0.50;99.90;;;;;;6250256;23;20510;-80
2022/02/12 04:17:35;;;;;;;7.07;4.30;;;-0.50;99.90;;;;;;6249595;23;20461;-80
2022/02/12 04:20:05;;;;;;;6.40;5.37;;;-0.50;99.90;;;;;;6248212;23;20157;-80
2022/02/12 04:22:32;;;;;;;6.20;4.40;;;-0.50;99.90;;;;;;6250645;23;20142;-80
2022/02/12 04:24:59;;;;;;;7.07;5.10;;;-0.50;99.90;;;;;;6250459;23;20161;-80
2022/02/12 04:27:25;;;;;;;8.80;5.23;;;-0.50;99.90;;;;;;6250130;23;20544;-80
2022/02/12 04:29:51;;;;;;;7.47;5.20;;;-0.60;99.90;;;;;;6249252;23;20184;-80
2022/02/12 04:32:17;;;;;;;8.57;6.10;;;-0.60;99.90;;;;;;6249778;23;20488;-80
2022/02/12 04:34:43;;;;;;;9.80;5.87;;;-0.50;99.90;;;;;;6251923;23;20628;-79
2022/02/12 04:37:08;;;;;;;7.77;5.40;;;-0.60;99.90;;;;;;6251591;23;20165;-81
2022/02/12 04:39:34;;;;;;;8.00;5.20;;;-0.60;99.90;;;;;;6251198;23;20149;-80
2022/02/12 04:42:00;;;;;;;12.90;5.60;;;-0.60;99.90;;;;;;6249747;23;20160;-80
2022/02/12 04:44:25;;;;;;;7.33;4.77;;;-0.60;99.90;;;;;;6251517;23;20156;-78
2022/02/12 04:46:51;;;;;;;8.53;5.40;;;-0.60;99.90;;;;;;6250925;23;20226;-80
2022/02/12 04:49:22;;;;;;;8.27;5.20;;;-0.60;99.90;;;;;;6249530;23;20166;-80
2022/02/12 04:51:48;;;;;;;12.23;5.33;;;-0.60;99.90;;;;;;6250588;23;20133;-80
2022/02/12 04:54:13;;;;;;;5.97;5.33;;;-0.60;99.90;;;;;;6250939;23;20153;-80
2022/02/12 04:56:39;;;;;;;9.20;5.17;;;-0.60;99.90;;;;;;6251622;23;20636;-79
2022/02/12 04:59:04;;;;;;;7.43;5.40;;;-0.60;99.90;;;;;;6251503;23;20148;-80
2022/02/12 05:01:30;;;;;;;9.37;5.13;;;-0.60;99.90;;;;;;6248434;23;20586;-80
2022/02/12 05:03:56;;;;;;;5.53;4.63;;;-0.60;99.90;;;;;;6249632;23;20156;-80
2022/02/12 05:06:22;;;;;;;7.10;5.40;;;-0.60;99.90;;;;;;6250042;23;20165;-80
2022/02/12 05:08:48;;;;;;;7.47;5.00;;;-0.60;99.90;;;;;;6249175;23;20152;-80
2022/02/12 05:11:14;;;;;;;10.33;5.20;;;-0.60;99.90;;;;;;6249692;23;20179;-80
2022/02/12 05:13:40;;;;;;;8.53;5.67;;;-0.60;99.90;;;;;;6250265;23;20632;-80
2022/02/12 05:16:07;;;;;;;12.60;5.80;;;-0.60;99.90;;;;;;6249570;23;20181;-80
2022/02/12 05:18:32;;;;;;;7.10;5.57;;;-0.60;99.90;;;;;;6250343;23;20172;-80
2022/02/12 05:20:58;;;;;;;6.37;5.67;;;-0.60;99.90;;;;;;6250421;23;20602;-80
2022/02/12 05:23:25;;;;;;;8.80;5.67;;;-0.60;99.90;;;;;;6250050;23;20156;-80
2022/02/12 05:25:51;;;;;;;12.63;5.80;;;-0.60;99.90;;;;;;6250157;23;20188;-80
2022/02/12 05:28:16;;;;;;;7.93;5.70;;;-0.70;99.90;;;;;;6249871;23;20149;-80
2022/02/12 05:30:43;;;;;;;9.40;6.13;;;-0.70;99.90;;;;;;6248492;23;20617;-80
2022/02/12 05:33:09;;;;;;;8.80;6.50;;;-0.70;99.90;;;;;;6250506;23;20607;-80
2022/02/12 05:35:35;;;;;;;10.93;6.63;;;-0.70;99.90;;;;;;6249392;23;20173;-80
2022/02/12 05:38:01;;;;;;;11.73;6.73;;;-0.70;99.90;;;;;;6249345;23;20141;-80
2022/02/12 05:40:27;;;;;;;9.33;6.37;;;-0.70;99.90;;;;;;6249945;23;20207;-80
2022/02/12 05:42:52;;;;;;;8.07;6.40;;;-0.70;99.90;;;;;;6250179;23;20594;-80
2022/02/12 05:45:18;;;;;;;9.77;6.70;;;-0.70;99.90;;;;;;6249827;23;20294;-78
2022/02/12 05:47:44;;;;;;;9.97;7.20;;;-0.70;99.90;;;;;;6248615;23;20244;-80
2022/02/12 05:50:10;;;;;;;16.63;7.27;;;-0.70;99.90;;;;;;6248076;23;20559;-81
2022/02/12 05:52:36;;;;;;;9.03;6.87;;;-0.80;99.90;;;;;;6250047;23;20152;-80
2022/02/12 05:55:03;;;;;;;11.10;7.60;;;-0.60;99.90;;;;;;6250052;23;20153;-80
2022/02/12 05:57:29;;;;;;;10.90;7.87;;;-0.70;99.90;;;;;;6250497;23;20153;-80
2022/02/12 05:59:55;;;;;;;7.60;6.80;;;-0.80;99.90;;;;;;6250241;23;20207;-81
2022/02/12 06:02:21;;;;;;;11.90;7.63;;;-0.80;99.90;;;;;;6250400;23;20231;-81
2022/02/12 06:04:47;;;;;;;9.80;7.37;;;-0.80;99.90;;;;;;6249361;23;20148;-78
2022/02/12 06:07:13;;;;;;;11.00;7.83;;;-0.80;99.90;;;;;;6248806;23;20732;-80
2022/02/12 06:09:38;;;;;;;11.93;9.47;;;-0.80;99.90;;;;;;6248792;23;20190;-80
2022/02/12 06:12:05;;;;;;;10.40;7.43;;;-0.90;99.90;;;;;;6250088;23;20535;-80
2022/02/12 06:14:31;;;;;;;11.17;8.57;;;-0.90;99.90;;;;;;6248675;23;20149;-79
2022/02/12 06:16:58;;;;;;;10.77;9.03;;;-0.90;99.90;;;;;;6250884;23;20482;-81
2022/02/12 06:19:24;;;;;;;14.97;9.23;;;-1.00;99.90;;;;;;6250993;23;20534;-80
2022/02/12 06:21:50;;;;;;;11.00;8.93;;;-1.10;99.90;;;;;;6249557;23;20486;-80
2022/02/12 06:24:16;;;;;;;12.03;8.57;;;-1.00;99.90;;;;;;6250121;23;20145;-79
2022/02/12 06:26:46;;;;;;;18.07;9.37;;;-1.00;99.90;;;;;;6250251;23;20199;-80
2022/02/12 06:29:16;;;;;;;15.97;8.50;;;-0.90;99.90;;;;;;6249724;23;20538;-79
2022/02/12 06:31:41;;;;;;;12.33;9.20;;;-0.90;99.90;;;;;;6248157;23;20174;-79
2022/02/12 06:34:07;;;;;;;14.60;9.20;;;-0.90;99.90;;;;;;6249781;23;20148;-80
2022/02/12 06:36:32;;;;;;;13.80;8.60;;;-0.90;99.90;;;;;;6248132;23;20187;-80
2022/02/12 06:38:58;;;;;;;12.20;9.03;;;-0.80;99.90;;;;;;6250117;23;20144;-80
2022/02/12 06:41:24;;;;;;;12.13;8.77;;;-0.90;99.90;;;;;;6250379;23;20159;-80
2022/02/12 06:43:49;;;;;;;12.20;8.87;;;-0.90;99.90;;;;;;6249623;23;20183;-79
2022/02/12 06:46:15;;;;;;;11.97;8.33;;;-0.90;99.90;;;;;;6247944;23;20173;-79
2022/02/12 06:48:41;;;;;;;15.57;8.87;;;-1.00;99.90;;;;;;6249808;23;20153;-80
2022/02/12 06:51:07;;;;;;;10.77;8.03;;;-1.00;99.90;;;;;;6248843;23;20626;-80
2022/02/12 06:53:33;;;;;;;13.30;8.43;;;-1.00;99.90;;;;;;6245522;23;20153;-80
2022/02/12 06:56:03;;;;;;;12.33;8.23;;;-0.80;99.90;;;;;;6247626;23;20622;-81
2022/02/12 06:58:29;;;;;;;11.77;8.70;;;-0.90;99.90;;;;;;6248328;23;20153;-80
2022/02/12 07:00:55;;;;;;;9.33;8.33;;;-0.90;99.90;;;;;;6248160;23;20537;-79
2022/02/12 07:03:20;;;;;;;11.50;9.00;;;-0.90;99.90;;;;;;6246173;23;20157;-80
2022/02/12 07:05:46;;;;;;;15.70;8.10;;;-0.70;99.90;;;;;;6271430;22;20173;-81
2022/02/12 07:08:12;;;;;;;11.33;8.57;;;-0.70;99.90;;;;;;6246279;23;20215;-80
2022/02/12 07:10:37;;;;;;;16.30;8.40;;;-0.70;99.90;;;;;;6247815;23;20247;-81
2022/02/12 07:13:03;;;;;;;19.87;7.83;;;-0.70;99.90;;;;;;6247836;23;20156;-81
2022/02/12 07:15:30;;;;;;;13.43;8.73;;;-0.40;99.90;;;;;;6245521;23;20172;-79
2022/02/12 07:17:55;;;;;;;13.00;8.47;;;-0.60;99.90;;;;;;6247991;23;20597;-78
2022/02/12 07:20:21;;;;;;;11.90;8.17;;;-0.70;99.90;;;;;;6246243;23;20211;-79
2022/02/12 07:22:47;;;;;;;14.90;8.57;;;-0.70;99.90;;;;;;6247786;23;20203;-78
2022/02/12 07:25:14;;;;;;;12.33;8.17;;;-0.70;99.90;;;;;;6248639;23;20160;-80
2022/02/12 07:27:41;;;;;;;16.50;7.87;;;-0.40;99.90;;;;;;6250331;23;20157;-79
2022/02/12 07:30:09;;;;;;;11.83;8.63;;;-0.60;99.90;;;;;;6248782;23;20168;-80
2022/02/12 07:32:38;;;;;;;13.07;8.23;;;-0.60;99.90;;;;;;6246912;23;20199;-80
2022/02/12 07:35:06;;;;;;;9.70;8.53;;;-0.60;99.90;;;;;;6248766;23;20149;-79
2022/02/12 07:37:32;;;;;;;13.43;8.87;;;-0.50;99.90;;;;;;6247774;23;20160;-80
2022/02/12 07:40:02;;;;;;;12.10;9.40;;;-0.50;99.90;;;;;;6249704;23;20152;-80
2022/02/12 07:42:28;;;;;;;13.60;8.03;;;-0.50;99.90;;;;;;6247535;23;20160;-79
2022/02/12 07:44:53;;;;;;;13.47;8.20;;;-0.40;99.90;;;;;;6249759;23;20152;-80
2022/02/12 07:47:19;;;;;;;12.63;8.77;;;-0.40;99.90;;;;;;6249269;23;20200;-81
2022/02/12 07:49:45;;;;;;;11.57;8.60;;;-0.40;99.90;;;;;;6249154;23;20197;-79
2022/02/12 07:52:10;;;;;;;14.23;8.73;;;-0.30;99.90;;;;;;6249134;23;20204;-80
2022/02/12 07:54:36;;;;;;;11.20;9.40;;;-0.20;99.90;;;;;;6247748;23;20466;-80
2022/02/12 07:57:02;;;;;;;11.10;8.43;;;-0.30;99.90;;;;;;6249533;23;20165;-80
2022/02/12 07:59:28;;;;;;;11.30;8.93;;;-0.20;99.90;;;;;;6249591;23;20487;-80
2022/02/12 08:01:54;;;;;;;11.43;8.80;;;-0.20;99.90;;;;;;6250346;23;20145;-80
2022/02/12 08:04:21;;;;;;;15.73;8.80;;;-0.10;99.90;;;;;;6252003;22;20176;-80
2022/02/12 08:09:31;;;;;;;12.50;9.23;;;0.00;99.90;;;;;;6251256;23;20219;-78
2022/02/12 08:12:13;;;;;;;13.13;9.47;;;0.00;99.90;;;;;;6250965;23;20598;-79
2022/02/12 08:14:43;;;;;;;15.37;9.47;;;0.10;99.90;;;;;;6249121;23;20141;-79
2022/02/12 08:17:09;;;;;;;13.17;9.53;;;0.10;99.90;;;;;;6248647;23;20173;-80
2022/02/12 08:19:37;;;;;;;13.13;10.27;;;0.20;99.90;;;;;;6249771;23;20153;-79
2022/02/12 08:22:06;;;;;;;12.53;9.37;;;0.20;99.90;;;;;;6251238;23;20620;-80
2022/02/12 08:24:32;;;;;;;11.80;9.13;;;0.20;99.90;;;;;;6251230;22;20488;-80
2022/02/12 08:26:58;;;;;;;11.67;8.90;;;0.20;99.90;;;;;;6249655;23;20262;-80
2022/02/12 08:29:28;;;;;;;12.13;9.00;;;0.30;99.90;;;;;;6250447;23;20157;-80
2022/02/12 08:31:57;;;;;;;13.73;9.43;;;0.30;99.90;;;;;;6249596;23;20153;-82
2022/02/12 08:34:27;;;;;;;15.87;9.67;;;0.30;99.90;;;;;;6247144;23;20167;-80
2022/02/12 08:36:54;;;;;;;15.50;10.33;;;0.40;99.90;;;;;;6249945;23;20168;-80
2022/02/12 08:39:21;;;;;;;10.87;9.07;;;0.60;99.90;;;;;;6248160;23;20584;-80
2022/02/12 08:41:47;;;;;;;9.87;8.87;;;0.60;99.90;;;;;;6249911;23;20181;-81
2022/02/12 08:44:13;;;;;;;11.20;9.37;;;0.70;99.90;;;;;;6250342;23;20153;-81
2022/02/12 08:46:39;;;;;;;14.13;8.80;;;0.70;99.90;;;;;;6249250;23;20165;-80
2022/02/12 08:49:06;;;;;;;15.63;9.93;;;0.80;99.90;;;;;;6251173;23;20149;-81
2022/02/12 08:51:37;;;;;;;13.87;9.43;;;0.90;99.90;;;;;;6249877;23;20180;-80
2022/02/12 08:54:04;;;;;;;10.57;9.07;;;1.00;99.90;;;;;;6250496;22;20141;-80
2022/02/12 08:56:32;;;;;;;13.63;8.97;;;0.90;99.90;;;;;;6249678;23;20168;-80
2022/02/12 08:58:57;;;;;;;10.80;8.53;;;1.00;99.90;;;;;;6248702;23;20633;-80
2022/02/12 09:01:23;;;;;;;11.20;8.90;;;1.10;99.90;;;;;;6248878;23;20153;-80
2022/02/12 09:03:49;;;;;;;10.87;9.63;;;1.10;99.90;;;;;;6249149;23;20153;-81
2022/02/12 09:06:14;;;;;;;9.07;8.17;;;1.30;99.90;;;;;;6249151;23;20169;-81
2022/02/12 09:08:40;;;;;;;11.47;8.77;;;1.30;99.90;;;;;;6247521;23;20566;-81
2022/02/12 09:11:06;;;;;;;10.23;6.90;;;1.30;99.90;;;;;;6247611;23;20177;-82
2022/02/12 09:13:32;;;;;;;7.80;6.67;;;1.40;99.90;;;;;;6248377;22;20149;-83
2022/02/12 09:15:58;;;;;;;7.53;6.70;;;1.50;99.90;;;;;;6248429;23;20161;-81
2022/02/12 09:18:24;;;;;;;8.00;7.20;;;1.50;99.90;;;;;;6246681;23;20160;-81
2022/02/12 09:20:49;;;;;;;7.20;6.40;;;1.60;99.90;;;;;;6246918;23;20177;-81
2022/02/12 09:23:15;;;;;;;10.90;6.60;;;1.70;99.90;;;;;;6246984;23;20697;-81
2022/02/12 09:25:41;;;;;;;6.67;5.97;;;1.80;99.90;;;;;;6248956;23;20215;-81
2022/02/12 09:28:06;;;;;;;6.73;5.27;;;1.90;99.90;;;;;;6248342;23;20133;-82
2022/02/12 09:30:32;;;;;;;8.17;5.80;;;1.90;99.90;;;;;;6248000;23;20187;-82
2022/02/12 09:32:58;;;;;;;9.40;5.77;;;2.00;99.90;;;;;;6249123;23;20183;-81
2022/02/12 09:35:24;;;;;;;7.80;5.63;;;2.00;99.90;;;;;;6246723;23;20176;-82
2022/02/12 09:37:51;;;;;;;6.93;5.70;;;2.10;99.90;;;;;;6249441;23;20145;-80
2022/02/12 09:40:17;;;;;;;7.03;5.43;;;2.00;99.90;;;;;;6249822;23;20621;-79
2022/02/12 09:42:47;;;;;;;6.93;5.63;;;2.00;99.90;;;;;;6247868;23;20164;-79
2022/02/12 09:45:13;;;;;;;7.27;5.77;;;2.00;99.90;;;;;;6249800;23;20220;-81
2022/02/12 09:47:47;;;;;;;7.73;6.10;;;2.10;99.90;;;;;;6250925;23;20173;-81
2022/02/12 09:50:15;;;;;;;10.07;5.67;;;2.10;99.90;;;;;;6251334;23;20181;-82
2022/02/12 09:52:46;;;;;;;5.80;5.30;;;2.10;99.90;;;;;;6250163;23;20202;-81
2022/02/12 09:55:12;;;;;;;7.30;5.07;;;2.20;99.90;;;;;;6248664;23;20133;-82
2022/02/12 09:57:38;;;;;;;6.10;5.43;;;2.30;99.90;;;;;;6246451;23;20473;-81
2022/02/12 10:00:11;;;;;;;9.07;5.03;;;2.30;99.90;;;;;;6249375;23;20188;-83
2022/02/12 10:02:37;;;;;;;7.77;5.87;;;2.40;99.90;;;;;;6249533;22;20176;-82
2022/02/12 10:05:39;;;;;;;6.10;5.50;;;2.50;99.90;;;;;;6249895;23;20194;-81
2022/02/12 10:08:12;;;;;;;6.37;5.20;;;2.90;99.90;;;;;;6156078;23;20230;-82
2022/02/12 10:10:40;;;;;;;6.20;5.23;;;2.80;99.90;;;;;;6235429;22;20181;-82
2022/02/12 10:13:20;;;;;;;6.53;4.87;;;2.90;99.90;;;;;;6248811;23;20274;-82
2022/02/12 10:15:50;;;;;;;5.93;4.87;;;2.80;99.90;;;;;;6247429;23;20169;-83
2022/02/12 10:18:20;;;;;;;6.50;4.90;;;2.80;99.90;;;;;;6248478;23;20223;-83
2022/02/12 10:20:46;;;;;;;6.07;5.00;;;2.80;99.90;;;;;;6249631;23;20590;-82
2022/02/12 10:23:15;;;;;;;6.50;5.20;;;;;;;;;;6249989;23;20150;-83
2022/02/12 10:25:42;;;;;;;6.60;5.30;;;;;;;;;;6249852;23;20694;-80
2022/02/12 10:28:09;;;;;;;7.60;5.93;;;;;;;;;;6249332;23;20156;-81
2022/02/12 10:30:35;;;;;;;9.57;6.37;;;;;;;;;;6248649;23;20198;-83
2022/02/12 10:33:03;;;;;;;7.90;5.10;;;;;;;;;;6246445;23;20169;-82
2022/02/12 10:35:30;;;;;;;7.70;5.23;;;;;;;;;;6244762;23;20175;-82
2022/02/12 10:38:02;;;;;;;9.73;6.50;;;;;;;;;;6249057;23;20640;-81
2022/02/12 10:40:28;;;;;;;8.50;5.83;;;;;;;;;;6249076;23;20154;-82
2022/02/12 10:42:55;;;;;;;8.53;6.40;;;;;;;;;;6249330;23;20171;-82
2022/02/12 10:45:22;;;;;;;7.07;5.43;;;;;;;;;;6248845;23;20230;-82
2022/02/12 10:47:49;;;;;;;6.97;5.47;;;;;;;;;;6249877;23;20576;-82
2022/02/12 10:50:16;;;;;;;8.40;5.50;;;;;;;;;;6247288;23;20189;-81
2022/02/12 10:52:43;;;;;;;5.63;5.13;;;;;;;;;;6248977;23;20668;-83
2022/02/12 10:55:21;;;;;;;9.33;5.93;;;;;;;;;;6248318;23;20634;-80
2022/02/12 10:57:47;;;;;;;6.43;5.80;;;;;;;;;;6247035;23;20143;-83
2022/02/12 11:00:13;;;;;;;6.93;5.20;;;;;;;;;;6248842;23;20179;-80
2022/02/12 11:02:40;;;;;;;5.77;5.23;;;;;;;;;;6248366;23;20181;-81
2022/02/12 11:05:07;;;;;;;5.53;4.30;;;;;;;;;;6247915;23;20589;-80
2022/02/12 11:07:33;;;;;;;7.40;5.20;;;;;;;;;;6246268;23;20560;-82
2022/02/12 11:09:59;;;;;;;6.73;5.40;;;;;;;;;;6248091;23;20176;-82
2022/02/12 11:12:29;;;;;;;6.83;5.13;;;;;;;;;;6248374;23;20171;-81
2022/02/12 11:14:55;;;;;;;6.73;4.80;;;;;;;;;;6248789;23;20158;-82
2022/02/12 11:17:22;;;;;;;6.30;4.97;;;;;;;;;;6248017;23;20255;-81
2022/02/12 11:19:52;;;;;;;9.67;5.30;;;;;;;;;;6248135;23;20148;-81
2022/02/12 11:22:18;;;;;;;6.27;5.20;;;;;;;;;;6247733;23;20230;-82
2022/02/12 11:24:47;;;;;;;6.77;5.20;;;;;;;;;;6246072;23;20563;-82
2022/02/12 11:27:17;;;;;;;6.80;5.00;;;;;;;;;;6247631;23;20735;-82
2022/02/12 11:29:46;;;;;;;8.33;5.40;;;;;;;;;;6248407;23;20180;-81
2022/02/12 11:32:16;;;;;;;5.50;4.60;;;;;;;;;;6248243;23;20175;-82
2022/02/12 11:34:44;;;;;;;4.77;3.63;;;;;;;;;;6248483;23;20209;-82
2022/02/12 11:37:17;;;;;;;4.90;4.23;;;;;;;;;;6246444;23;20179;-82
2022/02/12 11:40:03;;;;;;;8.10;4.67;;;;;;;;;;6250382;23;20188;-82
2022/02/12 11:42:39;;;;;;;5.90;5.30;;;;;;;;;;6249028;23;20153;-82
2022/02/12 11:45:21;;;;;;;5.77;4.43;;;;;;;;;;6248628;23;20151;-81
2022/02/12 11:48:05;;;;;;;4.27;3.53;;;;;;;;;;6248384;23;20149;-80
2022/02/12 11:50:40;;;;;;;6.33;4.53;;;;;;;;;;6248491;22;20168;-81
2022/02/12 11:53:26;;;;;;;5.67;4.30;;;;;;;;;;6246528;23;20538;-82
2022/02/12 11:55:52;;;;;;;4.70;4.07;;;;;;;;;;6247509;23;20169;-81
2022/02/12 11:58:22;;;;;;;5.17;4.30;;;;;;;;;;6249693;23;20582;-78
2022/02/12 12:00:48;;;;;;;4.20;3.80;;;;;;;;;;6247778;23;20153;-80
2022/02/12 12:03:14;;;;;;;4.63;4.20;;;;;;;;;;6249200;23;20153;-82
2022/02/12 12:05:40;;;;;;;5.30;3.97;;;;;;;;;;6249606;23;20238;-80
2022/02/12 12:08:07;;;;;;;5.03;4.10;;;;;;;;;;6248625;23;20545;-79
2022/02/12 12:10:37;;;;;;;4.17;3.57;;;;;;;;;;6248431;23;20260;-82
2022/02/12 12:13:12;;;;;;;4.33;3.80;;;;;;;;;;6248421;23;20153;-80
2022/02/12 12:15:38;;;;;;;3.53;3.23;;;;;;;;;;6248230;23;20179;-79
2022/02/12 12:18:07;;;;;;;7.03;5.17;;;;;;;;;;6246855;23;20149;-79
2022/02/12 12:20:37;;;;;;;3.40;3.03;;;;;;;;;;6248174;23;20152;-79
2022/02/12 12:23:08;;;;;;;4.97;3.10;;;;;;;;;;6248926;23;20194;-79
2022/02/12 12:25:53;;;;;;;3.93;3.10;;;;;;;;;;6247125;22;20652;-80
2022/02/12 12:28:27;;;;;;;5.30;3.90;;;;;;;;;;6247500;23;20153;-82
2022/02/12 12:30:54;;;;;;;6.93;3.77;;;;;;;;;;6253213;22;20204;-80
2022/02/12 12:33:21;;;;;;;5.47;3.37;;;;;;;;;;6250444;23;20476;-80
2022/02/12 12:35:51;;;;;;;3.43;3.13;;;;;;;;;;6250349;23;20198;-80
2022/02/12 12:38:18;;;;;;;5.17;3.07;;;;;;;;;;6249502;23;20142;-81
2022/02/12 12:40:44;;;;;;;3.37;3.00;;;;;;;;;;6245698;23;20157;-80
2022/02/12 12:43:10;;;;;;;3.80;2.67;;;;;;;;;;6246098;23;20161;-81
2022/02/12 12:45:40;;;;;;;3.60;2.70;;;;;;;;;;6245096;23;20514;-81
2022/02/12 12:48:06;;;;;;;3.33;3.03;;;;;;;;;;6247894;22;20145;-78
2022/02/12 12:50:36;;;;;;;3.43;2.77;;;;;;;;;;6246706;23;20173;-79
2022/02/12 12:53:02;;;;;;;3.80;2.77;;;;;;;;;;6247817;23;20195;-77
2022/02/12 12:55:28;;;;;;;4.03;2.73;;;;;;;;;;6247738;23;20157;-80
2022/02/12 12:57:55;;;;;;;2.60;2.40;;;;;;;;;;6248799;23;20145;-78
2022/02/12 13:00:22;;;;;;;2.50;2.30;;;;;;;;;;6259173;23;20213;-79
2022/02/12 13:02:50;;;;;;;2.33;1.80;;;;;;;;;;6264458;22;20157;-80
2022/02/12 13:05:29;;;;;;;2.77;2.33;;;;;;;;;;6262839;23;20153;-82
2022/02/12 13:07:59;;;;;;;3.10;2.50;;;;;;;;;;6251089;22;20144;-81
2022/02/12 13:10:27;;;;;;;2.87;2.30;;;;;;;;;;6249407;23;20173;-81
2022/02/12 13:12:53;;;;;;;3.90;2.80;;;;;;;;;;6251133;23;20155;-81
2022/02/12 13:15:24;;;;;;;2.90;2.60;;;;;;;;;;6251004;23;20271;-80
2022/02/12 13:17:54;;;;;;;2.93;2.60;;;;;;;;;;6250581;23;20444;-80
2022/02/12 13:20:21;;;;;;;2.70;2.50;;;;;;;;;;6251093;23;20153;-80